PAUN/UNK METAR and TAF weather

Enter ICAO airport designator
Station Type Date Time Source
PAUN METAR 2020/04/01 21:56 UTC NOAA

PAUN 012156Z AUTO 09017KT 10SM FEW042 OVC050 M04/M12 A3014 RMK AO2 PK WND 08027/2123 SLP208 T10391117 FZRANO


Station Type Date Time Source
PAUN Decoded METAR 2020/04/01 21:56 UTC NOAA

Unalakleet, AK, United States (PAUN) 63-53N 160-48W 6M
Apr 01, 2020 - 05:56 PM EDT / 2020.04.01 2156 UTC
Wind: from the E (090 degrees) at 20 MPH (17 KT):0
Visibility: 10 mile(s):0
Sky conditions: overcast
Temperature: 25.0 F (-3.9 C)
Windchill: 10 F (-12 C):1
Dew Point: 10.9 F (-11.7 C)
Relative Humidity: 54%
Pressure (altimeter): 30.14 in. Hg (1020 hPa)
ob: PAUN 012156Z AUTO 09017KT 10SM FEW042 OVC050 M04/M12 A3014 RMK AO2 PK WND 08027/2123 SLP208 T10391117 FZRANO
cycle: 22

Station Type Date Time Source
PAUN TAF 2020/04/01 18:28 UTC NOAA

TAF PAUN 011726Z 0118/0218 08018G22KT P6SM OVC090
FM012100 08020G28KT P6SM -SN SCT025 BKN035 OVC050
FM020300 09016G22KT 4SM -SN BR BKN015 OVC025
FM020600 12012KT 1 1/2SM -SN BR BKN015 OVC025
FM020900 21012KT 4SM -SN BR BKN015 OVC025
FM021200 24012KT P6SM OVC015

Example: see airport list